Weather History for KHNR - March, 2013

Change the Weather History Date:

Sunday, March 3, 2013

  Actual Average Record
Temperature  
Mean Temperature 29 °F -  
Max Temperature 37 °F 42 °F 77 °F (1983)
Min Temperature 21 °F 22 °F -9 °F (2014)
Degree Days  
Heating Degree Days 36    
Moisture  
Dew Point 21 °F    
Average Humidity 71    
Maximum Humidity 93    
Minimum Humidity 56    
Precipitation  
Precipitation 0.00 in - - ()
Sea Level Pressure  
Sea Level Pressure 29.96 in    
Wind  
Wind Speed 7 mph (SE)    
Max Wind Speed 18 mph    
Max Gust Speed 24 mph    
Visibility 10 miles    
Events      
Averages and records for this station are not official NWS values.
T = Trace of Precipitation, MM = Missing Value Source: NWS Daily Summary

Daily Weather History Graph

Daily Weather History Graph

Search for Another Location

Airport or City:

Trip Planner

Search our weather history database for the weather conditions in past years. The results will help you decide how hot, cold, wet, or windy it might be!

Date:

Astronomy

Mar. 03, 2013 Rise Set
Actual Time 6:52 AM CST 6:14 PM CST
Civil Twilight 6:24 AM CST 6:42 PM CST
Nautical Twilight 5:52 AM CST 7:14 PM CST
Astronomical Twilight 5:20 AM CST 7:46 PM CST
Moon No Moon Rise 10:03 AM CST (3/3)
Length of Visible Light 12h 17m
Length of Day
11h 22m
Waning Gibbous, 63% of the Moon is Illuminated
Mar 3
Waning Gibbous
Mar 4
Last Quarter
Mar 11
New
Mar 19
First Quarter
Mar 27
Full

Hourly Weather History & Observations

Time (CST) Temp. Windchill Dew Point Humidity Pressure Visibility Wind Dir Wind Speed Gust Speed Precip Events Conditions
12:15 AM 24.8 °F - 19.4 °F 80% 30.15 in 10.0 mi Calm Calm - N/A   Clear
12:35 AM 23.0 °F - 19.4 °F 86% 30.14 in 10.0 mi Calm Calm - N/A   Clear
12:55 AM 23.0 °F 17.0 °F 19.4 °F 86% 30.13 in 10.0 mi South 4.6 mph - N/A   Clear
1:15 AM 24.8 °F 16.9 °F 19.4 °F 80% 30.12 in 10.0 mi South 6.9 mph - N/A   Clear
2:15 AM 24.8 °F 19.1 °F 19.4 °F 80% 30.11 in 10.0 mi SSE 4.6 mph - N/A   Clear
2:35 AM 24.8 °F 17.9 °F 19.4 °F 80% 30.10 in 10.0 mi South 5.8 mph - N/A   Clear
2:55 AM 23.0 °F 14.7 °F 19.4 °F 86% 30.08 in 10.0 mi SSE 6.9 mph - N/A   Clear
3:15 AM 23.0 °F 17.0 °F 19.4 °F 86% 30.08 in 10.0 mi SSE 4.6 mph - N/A   Clear
3:35 AM 23.0 °F - 19.4 °F 86% 30.07 in 10.0 mi Calm Calm - N/A   Clear
3:55 AM 21.2 °F 14.9 °F 19.4 °F 93% 30.06 in 10.0 mi SSE 4.6 mph - N/A   Clear
4:15 AM 21.2 °F - 19.4 °F 93% 30.06 in 10.0 mi Calm Calm - N/A   Clear
4:35 AM 21.2 °F - 19.4 °F 93% 30.05 in 10.0 mi Calm Calm - N/A   Clear
4:55 AM 21.2 °F - 19.4 °F 93% 30.05 in 10.0 mi Calm Calm - N/A   Unknown
5:15 AM 23.0 °F - 19.4 °F 86% 30.05 in 10.0 mi Calm Calm - N/A   Unknown
5:35 AM 21.2 °F 14.9 °F 19.4 °F 93% 30.05 in 10.0 mi SE 4.6 mph - N/A   Unknown
5:55 AM 21.2 °F 13.6 °F 19.4 °F 93% 30.04 in 10.0 mi ESE 5.8 mph - N/A   Unknown
6:15 AM 21.2 °F 13.6 °F 17.6 °F 86% 30.04 in 10.0 mi SE 5.8 mph - N/A   Unknown
6:35 AM 21.2 °F 13.6 °F 17.6 °F 86% 30.03 in 10.0 mi SE 5.8 mph - N/A   Unknown
6:55 AM 23.0 °F 13.1 °F 17.6 °F 80% 30.03 in 10.0 mi SE 9.2 mph - N/A   Unknown
7:15 AM 23.0 °F 14.7 °F 17.6 °F 80% 30.03 in 10.0 mi SE 6.9 mph - N/A   Unknown
7:35 AM 23.0 °F 14.7 °F 17.6 °F 80% 30.04 in 10.0 mi SE 6.9 mph - N/A   Unknown
7:55 AM 24.8 °F 17.9 °F 17.6 °F 74% 30.03 in 10.0 mi SE 5.8 mph - N/A   Unknown
8:15 AM 24.8 °F 16.1 °F 17.6 °F 74% 30.03 in 10.0 mi SSE 8.1 mph - N/A   Unknown
8:35 AM 26.6 °F 17.5 °F 17.6 °F 69% 30.02 in 10.0 mi SSE 9.2 mph - N/A   Unknown
8:55 AM 28.4 °F 19.1 °F 17.6 °F 64% 30.01 in 10.0 mi SSE 10.4 mph - N/A   Unknown
9:15 AM 28.4 °F 19.7 °F 19.4 °F 69% 30.01 in 10.0 mi SSE 9.2 mph - N/A   Unknown
9:35 AM 30.2 °F 20.8 °F 19.4 °F 64% 30.00 in 10.0 mi SSE 11.5 mph 16.1 mph N/A   Unknown
9:55 AM 30.2 °F 20.2 °F 19.4 °F 64% 29.99 in 10.0 mi SSE 12.7 mph - N/A   Unknown
10:15 AM 32.0 °F 22.5 °F 21.2 °F 64% 29.99 in 10.0 mi SSE 12.7 mph - N/A   Unknown
10:35 AM 33.8 °F 24.3 °F 21.2 °F 60% 29.99 in 10.0 mi SSE 13.8 mph - N/A   Unknown
10:55 AM 33.8 °F 25.3 °F 23.0 °F 65% 29.98 in 10.0 mi SE 11.5 mph - N/A   Unknown
11:15 AM 33.8 °F 24.3 °F 21.2 °F 60% 29.97 in 10.0 mi ESE 13.8 mph 18.4 mph N/A   Unknown
11:35 AM 35.6 °F 25.9 °F 23.0 °F 60% 29.96 in 10.0 mi SE 16.1 mph 19.6 mph N/A   Unknown
11:55 AM 35.6 °F 25.9 °F 21.2 °F 56% 29.96 in 10.0 mi SE 16.1 mph 20.7 mph N/A   Unknown
12:15 PM 35.6 °F 26.2 °F 23.0 °F 60% 29.95 in 10.0 mi SE 15.0 mph 20.7 mph N/A   Unknown
12:35 PM 35.6 °F 26.6 °F 24.8 °F 65% 29.94 in 10.0 mi SE 13.8 mph 17.3 mph N/A   Unknown
12:55 PM 37.4 °F 27.8 °F 24.8 °F 60% 29.92 in 10.0 mi SE 17.3 mph - N/A   Unknown
1:15 PM 37.4 °F 28.5 °F 24.8 °F 60% 29.92 in 10.0 mi SSE 15.0 mph 18.4 mph N/A   Unknown
1:35 PM 37.4 °F 29.3 °F 24.8 °F 60% 29.91 in 10.0 mi SSE 12.7 mph 19.6 mph N/A   Unknown
1:55 PM 37.4 °F 28.9 °F 24.8 °F 60% 29.90 in 10.0 mi SE 13.8 mph 19.6 mph N/A   Unknown
2:15 PM 37.4 °F 29.8 °F 24.8 °F 60% 29.89 in 10.0 mi SE 11.5 mph 20.7 mph N/A   Unknown
2:35 PM 35.6 °F 25.9 °F 24.8 °F 65% 29.89 in 10.0 mi SSE 16.1 mph - N/A   Unknown
2:55 PM 35.6 °F 25.9 °F 24.8 °F 65% 29.88 in 10.0 mi SE 16.1 mph 20.7 mph N/A   Unknown
3:15 PM 35.6 °F 26.2 °F 24.8 °F 65% 29.89 in 10.0 mi SE 15.0 mph 23.0 mph N/A   Unknown
3:35 PM 35.6 °F 26.2 °F 24.8 °F 65% 29.88 in 10.0 mi SE 15.0 mph - N/A   Unknown
4:15 PM 35.6 °F 26.6 °F 24.8 °F 65% 29.87 in 10.0 mi SE 13.8 mph 17.3 mph N/A   Unknown
4:35 PM 35.6 °F 27.5 °F 24.8 °F 65% 29.87 in 10.0 mi SSE 11.5 mph 21.9 mph N/A   Unknown
4:55 PM 35.6 °F 27.1 °F 24.8 °F 65% 29.87 in 10.0 mi SE 12.7 mph - N/A   Unknown
5:15 PM 33.8 °F 23.9 °F 24.8 °F 70% - 10.0 mi SE 15.0 mph - N/A   Unknown
5:35 PM 33.8 °F 24.8 °F 24.8 °F 70% 29.85 in 10.0 mi SE 12.7 mph 17.3 mph N/A   Unknown
5:55 PM 33.8 °F 24.8 °F 23.0 °F 65% 29.85 in 10.0 mi SE 12.7 mph 18.4 mph N/A   Unknown
6:35 PM 33.8 °F 23.5 °F 24.8 °F 70% 29.84 in 10.0 mi ESE 16.1 mph 20.7 mph N/A   Unknown
6:55 PM 33.8 °F 22.8 °F 21.2 °F 60% 29.84 in 10.0 mi SE 18.4 mph 24.2 mph N/A   Unknown
7:15 PM 33.8 °F 22.8 °F 21.2 °F 60% 29.85 in 10.0 mi SE 18.4 mph 24.2 mph N/A   Unknown
7:35 PM 33.8 °F 23.2 °F 21.2 °F 60% 29.87 in 10.0 mi SE 17.3 mph - N/A   Unknown
7:55 PM 33.8 °F 23.9 °F 21.2 °F 60% 29.86 in 10.0 mi SE 15.0 mph 21.9 mph N/A   Unknown
8:15 PM 33.8 °F 25.8 °F 21.2 °F 60% 29.87 in 10.0 mi SSE 10.4 mph - N/A   Unknown
8:35 PM 33.8 °F 25.3 °F 21.2 °F 60% 29.87 in 10.0 mi ESE 11.5 mph 16.1 mph N/A   Light Drizzle
8:55 PM 32.0 °F 23.0 °F 21.2 °F 64% 29.86 in 10.0 mi SE 11.5 mph 20.7 mph N/A   Unknown
9:15 PM 32.0 °F 24.8 °F 23.0 °F 69% 29.86 in 10.0 mi SE 8.1 mph - N/A   Light Drizzle
9:35 PM 32.0 °F 22.5 °F 23.0 °F 69% 29.85 in 10.0 mi SE 12.7 mph 17.3 mph N/A   Unknown
9:55 PM 32.0 °F 24.8 °F 23.0 °F 69% 29.85 in 10.0 mi SE 8.1 mph - N/A   Unknown
10:15 PM 32.0 °F 23.6 °F 21.2 °F 64% 29.85 in 10.0 mi SE 10.4 mph - N/A   Unknown
10:35 PM 32.0 °F 22.1 °F 21.2 °F 64% 29.85 in 10.0 mi SE 13.8 mph - N/A   Unknown
10:55 PM 32.0 °F 23.0 °F 21.2 °F 64% 29.84 in 10.0 mi SE 11.5 mph 18.4 mph N/A   Unknown
11:15 PM 32.0 °F 22.5 °F 21.2 °F 64% 29.84 in 10.0 mi SE 12.7 mph - N/A   Unknown
11:35 PM 32.0 °F 22.5 °F 21.2 °F 64% 29.82 in 10.0 mi SE 12.7 mph - N/A   Unknown
11:55 PM 30.2 °F 20.2 °F 21.2 °F 69% 29.81 in 10.0 mi SE 12.7 mph - N/A   Unknown